createdAt,value
2018-07-22T00:00:24.855Z,24.20
2018-07-22T00:02:57.986Z,24.10
2018-07-22T00:05:30.804Z,24.00
2018-07-22T00:08:03.736Z,24.00
2018-07-22T00:10:36.567Z,24.00
2018-07-22T00:15:41.437Z,24.10
2018-07-22T00:18:14.398Z,24.00
2018-07-22T00:20:47.672Z,23.90
2018-07-22T00:23:20.669Z,23.80
2018-07-22T00:25:53.831Z,23.80
2018-07-22T00:28:26.752Z,23.60
2018-07-22T00:30:59.969Z,23.60
2018-07-22T00:33:32.907Z,23.50
2018-07-22T00:36:06.086Z,23.40
2018-07-22T00:38:39.252Z,23.40
2018-07-22T00:41:13.227Z,23.30
2018-07-22T00:43:46.216Z,23.30
2018-07-22T00:46:19.311Z,23.30
2018-07-22T00:48:52.145Z,23.10
2018-07-22T00:51:25.169Z,23.20
2018-07-22T00:53:58.268Z,23.10
2018-07-22T00:56:31.451Z,23.10
2018-07-22T00:59:04.374Z,23.00
2018-07-22T01:01:37.496Z,23.00
2018-07-22T01:04:10.604Z,23.00
2018-07-22T01:06:44.206Z,22.90
2018-07-22T01:09:17.433Z,22.90
2018-07-22T01:11:50.604Z,22.80
2018-07-22T01:14:23.792Z,22.70
2018-07-22T01:16:56.979Z,22.80
2018-07-22T01:19:30.112Z,22.70
2018-07-22T01:22:03.555Z,22.70
2018-07-22T01:24:36.606Z,22.60
2018-07-22T01:27:09.765Z,22.50
2018-07-22T01:29:42.987Z,22.40
2018-07-22T01:32:16.111Z,22.40
2018-07-22T01:34:49.489Z,22.30
2018-07-22T01:37:23.412Z,22.20
2018-07-22T01:39:56.611Z,22.20
2018-07-22T01:42:29.830Z,22.10
2018-07-22T01:45:03.681Z,22.20
2018-07-22T01:47:38.969Z,22.10
2018-07-22T01:50:12.478Z,22.10
2018-07-22T01:52:45.582Z,22.00
2018-07-22T01:55:18.518Z,22.00
2018-07-22T01:57:51.646Z,21.90
2018-07-22T02:00:24.833Z,21.90
2018-07-22T02:03:01.432Z,21.90
2018-07-22T02:05:34.350Z,21.90
2018-07-22T02:08:07.708Z,21.90
2018-07-22T02:10:40.838Z,21.90
2018-07-22T02:13:13.707Z,21.90
2018-07-22T02:15:46.748Z,21.90
2018-07-22T02:18:20.730Z,21.80
2018-07-22T02:20:54.041Z,21.90
2018-07-22T02:23:27.868Z,21.90
2018-07-22T02:26:01.497Z,21.80
2018-07-22T02:28:34.612Z,21.80
2018-07-22T02:31:07.807Z,21.80
2018-07-22T02:33:40.801Z,21.80
2018-07-22T02:36:14.103Z,21.90
2018-07-22T02:38:47.051Z,21.90
2018-07-22T02:41:20.184Z,21.80
2018-07-22T02:43:53.235Z,21.80
2018-07-22T02:46:26.871Z,21.80
2018-07-22T02:49:01.642Z,21.80
2018-07-22T02:51:34.748Z,21.80
2018-07-22T02:54:07.824Z,21.80
2018-07-22T02:56:40.908Z,21.80
2018-07-22T02:59:14.308Z,21.80
2018-07-22T03:01:47.490Z,21.70
2018-07-22T03:04:21.221Z,21.70
2018-07-22T03:06:54.329Z,21.60
2018-07-22T03:09:28.023Z,21.50
2018-07-22T03:12:01.159Z,21.60
2018-07-22T03:14:34.186Z,21.60
2018-07-22T03:17:07.298Z,21.50
2018-07-22T03:19:40.518Z,21.60
2018-07-22T03:22:13.500Z,21.60
2018-07-22T03:24:47.162Z,21.50
2018-07-22T03:27:20.351Z,21.50
2018-07-22T03:29:53.415Z,21.40
2018-07-22T03:32:26.487Z,21.40
2018-07-22T03:34:59.690Z,21.50
2018-07-22T03:37:32.789Z,21.40
2018-07-22T03:40:06.187Z,21.40
2018-07-22T03:42:39.172Z,21.40
2018-07-22T03:45:12.196Z,21.40
2018-07-22T03:47:53.443Z,21.40
2018-07-22T03:50:26.446Z,21.30
2018-07-22T03:52:59.496Z,21.30
2018-07-22T03:55:32.503Z,21.30
2018-07-22T03:58:05.547Z,21.30
2018-07-22T04:00:38.468Z,21.30
2018-07-22T04:03:11.643Z,21.20
2018-07-22T04:05:44.539Z,21.10
2018-07-22T04:08:17.551Z,21.10
2018-07-22T04:10:50.580Z,21.20
2018-07-22T04:13:23.606Z,21.20
2018-07-22T04:15:56.539Z,21.20
2018-07-22T04:18:29.823Z,21.20
2018-07-22T04:21:03.332Z,21.20
2018-07-22T04:23:36.460Z,21.10
2018-07-22T04:26:10.060Z,20.90
2018-07-22T04:28:45.048Z,20.90
2018-07-22T04:31:18.203Z,20.90
2018-07-22T04:33:51.176Z,20.80
2018-07-22T04:36:24.315Z,20.70
2018-07-22T04:38:57.292Z,20.70
2018-07-22T04:41:30.499Z,20.70
2018-07-22T04:44:03.443Z,20.90
2018-07-22T04:46:36.579Z,20.90
2018-07-22T04:49:09.488Z,20.80
2018-07-22T04:51:42.549Z,20.90
2018-07-22T04:54:15.759Z,20.90
2018-07-22T04:56:48.832Z,20.90
2018-07-22T04:59:21.940Z,20.90
2018-07-22T05:01:55.124Z,20.80
2018-07-22T05:04:28.150Z,20.70
2018-07-22T05:07:01.229Z,20.60
2018-07-22T05:09:34.425Z,20.60
2018-07-22T05:12:07.466Z,20.50
2018-07-22T05:14:41.163Z,20.30
2018-07-22T05:17:14.330Z,20.30
2018-07-22T05:19:47.376Z,20.30
2018-07-22T05:22:20.517Z,20.30
2018-07-22T05:24:53.686Z,20.40
2018-07-22T05:27:26.892Z,20.30
2018-07-22T05:29:59.918Z,20.30
2018-07-22T05:32:32.897Z,20.20
2018-07-22T05:35:06.136Z,20.20
2018-07-22T05:37:47.658Z,20.20
2018-07-22T05:40:29.087Z,20.20
2018-07-22T05:43:02.164Z,20.10
2018-07-22T05:45:35.197Z,20.10
2018-07-22T05:48:08.233Z,20.10
2018-07-22T05:50:41.130Z,20.00
2018-07-22T05:53:14.964Z,20.00
2018-07-22T05:55:48.089Z,20.00
2018-07-22T05:58:21.261Z,19.90
2018-07-22T06:00:54.268Z,20.00
2018-07-22T06:03:27.569Z,20.00
2018-07-22T06:06:00.820Z,19.90
2018-07-22T06:08:33.926Z,19.80
2018-07-22T06:11:07.076Z,19.70
2018-07-22T06:13:40.085Z,19.70
2018-07-22T06:18:45.273Z,19.60
2018-07-22T06:21:18.092Z,19.50
2018-07-22T06:23:51.252Z,19.50
2018-07-22T06:26:24.261Z,19.60
2018-07-22T06:28:58.572Z,19.60
2018-07-22T06:31:31.524Z,19.60
2018-07-22T06:34:04.554Z,19.50
2018-07-22T06:36:37.717Z,19.60
2018-07-22T06:39:14.476Z,19.60
2018-07-22T06:41:47.644Z,19.60
2018-07-22T06:44:20.743Z,19.60
2018-07-22T06:46:53.761Z,19.50
2018-07-22T06:49:26.733Z,19.50
2018-07-22T06:54:31.583Z,19.40
2018-07-22T06:57:04.529Z,19.50
2018-07-22T06:59:37.657Z,19.40
2018-07-22T07:02:10.660Z,19.40
2018-07-22T07:04:43.634Z,19.40
2018-07-22T07:07:16.715Z,19.30
2018-07-22T07:09:49.725Z,19.20
2018-07-22T07:12:22.669Z,19.30
2018-07-22T07:14:55.663Z,19.30
2018-07-22T07:17:28.988Z,19.30
2018-07-22T07:20:02.057Z,19.20
2018-07-22T07:22:35.187Z,19.30
2018-07-22T07:25:08.540Z,19.30
2018-07-22T07:27:41.506Z,19.20
2018-07-22T07:30:14.903Z,19.20
2018-07-22T07:32:47.689Z,19.10
2018-07-22T07:35:20.885Z,19.10
2018-07-22T07:37:53.877Z,19.00
2018-07-22T07:40:27.108Z,18.90
2018-07-22T07:42:59.976Z,19.00
2018-07-22T07:45:32.956Z,18.90
2018-07-22T07:48:06.046Z,18.90
2018-07-22T07:50:39.345Z,18.80
2018-07-22T07:53:12.814Z,18.80
2018-07-22T07:55:46.038Z,18.80
2018-07-22T08:00:50.752Z,18.70
2018-07-22T08:03:24.005Z,18.70
2018-07-22T08:05:57.097Z,18.70
2018-07-22T08:08:30.088Z,18.60
2018-07-22T08:11:02.961Z,18.70
2018-07-22T08:13:35.932Z,18.70
2018-07-22T08:16:09.533Z,18.60
2018-07-22T08:18:42.536Z,18.60
2018-07-22T08:21:15.493Z,18.70
2018-07-22T08:23:48.583Z,18.70
2018-07-22T08:26:21.614Z,18.70
2018-07-22T08:29:07.956Z,18.60
2018-07-22T08:31:40.972Z,18.60
2018-07-22T08:34:14.072Z,18.60
2018-07-22T08:36:47.573Z,18.70
2018-07-22T08:39:21.957Z,18.70
2018-07-22T08:41:55.624Z,18.60
2018-07-22T08:44:28.499Z,18.60
2018-07-22T08:47:01.487Z,18.60
2018-07-22T08:49:34.556Z,18.50
2018-07-22T08:52:07.508Z,18.50
2018-07-22T08:54:40.692Z,18.50
2018-07-22T08:57:13.603Z,18.50
2018-07-22T08:59:46.662Z,18.50
2018-07-22T09:02:19.636Z,18.60
2018-07-22T09:04:52.468Z,18.60
2018-07-22T09:07:25.583Z,18.60
2018-07-22T09:09:58.535Z,18.60
2018-07-22T09:12:31.606Z,18.50
2018-07-22T09:15:04.499Z,18.50
2018-07-22T09:17:37.799Z,18.50
2018-07-22T09:20:10.727Z,18.40
2018-07-22T09:22:43.788Z,18.40
2018-07-22T09:25:16.891Z,18.40
2018-07-22T09:27:49.897Z,18.40
2018-07-22T09:30:22.903Z,18.40
2018-07-22T09:32:55.988Z,18.40
2018-07-22T09:35:28.926Z,18.40
2018-07-22T09:38:02.086Z,18.40
2018-07-22T09:40:35.058Z,18.40
2018-07-22T09:43:08.049Z,18.40
2018-07-22T09:45:40.993Z,18.40
2018-07-22T09:48:13.972Z,18.40
2018-07-22T09:50:46.794Z,18.40
2018-07-22T09:53:20.289Z,18.40
2018-07-22T09:55:53.318Z,18.30
2018-07-22T09:58:26.366Z,18.30
2018-07-22T10:01:00.912Z,18.30
2018-07-22T10:03:34.452Z,18.30
2018-07-22T10:06:07.389Z,18.30
2018-07-22T10:08:40.463Z,18.40
2018-07-22T10:11:13.452Z,18.40
2018-07-22T10:13:46.652Z,18.40
2018-07-22T10:16:19.497Z,18.50
2018-07-22T10:18:52.587Z,18.50
2018-07-22T10:21:25.665Z,18.50
2018-07-22T10:23:58.718Z,18.50
2018-07-22T10:26:31.904Z,18.50
2018-07-22T10:29:04.796Z,18.50
2018-07-22T10:31:38.106Z,18.60
2018-07-22T10:34:11.145Z,18.60
2018-07-22T10:36:43.957Z,18.60
2018-07-22T10:39:17.205Z,18.50
2018-07-22T10:41:50.436Z,18.50
2018-07-22T10:44:23.340Z,18.50
2018-07-22T10:46:56.444Z,18.50
2018-07-22T10:49:29.463Z,18.50
2018-07-22T10:52:02.488Z,18.40
2018-07-22T10:54:35.489Z,18.30
2018-07-22T10:57:08.501Z,18.30
2018-07-22T10:59:41.416Z,18.20
2018-07-22T11:02:14.483Z,18.30
2018-07-22T11:04:47.588Z,18.20
2018-07-22T11:07:20.576Z,18.20
2018-07-22T11:09:54.050Z,18.10
2018-07-22T11:12:26.923Z,18.10
2018-07-22T11:15:12.916Z,18.00
2018-07-22T11:17:56.236Z,18.00
2018-07-22T11:20:35.097Z,18.10
2018-07-22T11:23:07.937Z,18.10
2018-07-22T11:25:40.997Z,18.10
2018-07-22T11:28:13.865Z,18.10
2018-07-22T11:30:47.630Z,18.00
2018-07-22T11:33:20.667Z,18.00
2018-07-22T11:35:53.761Z,18.00
2018-07-22T11:38:27.354Z,18.00
2018-07-22T11:41:02.879Z,18.10
2018-07-22T11:43:35.914Z,18.10
2018-07-22T11:46:09.538Z,18.10
2018-07-22T11:48:42.670Z,18.10
2018-07-22T11:51:15.779Z,18.10
2018-07-22T11:53:48.830Z,18.10
2018-07-22T11:56:21.912Z,18.20
2018-07-22T11:58:54.969Z,18.20
2018-07-22T12:01:28.348Z,18.20
2018-07-22T12:04:01.395Z,18.30
2018-07-22T12:06:34.551Z,18.40
2018-07-22T12:09:09.761Z,18.50
2018-07-22T12:11:42.814Z,18.50
2018-07-22T12:14:15.838Z,18.60
2018-07-22T12:16:48.825Z,18.70
2018-07-22T12:19:21.883Z,18.70
2018-07-22T12:21:55.013Z,18.70
2018-07-22T12:24:27.872Z,18.80
2018-07-22T12:27:00.938Z,18.80
2018-07-22T12:29:33.926Z,18.80
2018-07-22T12:32:07.037Z,18.80
2018-07-22T12:34:40.040Z,18.80
2018-07-22T12:37:13.085Z,18.90
2018-07-22T12:39:46.124Z,19.00
2018-07-22T12:42:19.057Z,18.90
2018-07-22T12:44:53.561Z,19.00
2018-07-22T12:47:26.597Z,19.00
2018-07-22T12:49:59.737Z,19.10
2018-07-22T12:52:32.864Z,19.20
2018-07-22T12:55:06.456Z,19.30
2018-07-22T13:00:18.299Z,19.50
2018-07-22T13:03:01.355Z,19.50
2018-07-22T13:05:43.805Z,19.60
2018-07-22T13:08:16.905Z,19.60
2018-07-22T13:10:49.850Z,19.60
2018-07-22T13:13:22.944Z,19.70
2018-07-22T13:15:56.050Z,19.80
2018-07-22T13:18:29.182Z,19.80
2018-07-22T13:21:02.268Z,19.90
2018-07-22T13:23:35.155Z,19.90
2018-07-22T13:26:08.265Z,20.00
2018-07-22T13:28:41.119Z,20.00
2018-07-22T13:31:14.280Z,20.00
2018-07-22T13:33:47.458Z,20.00
2018-07-22T13:36:20.542Z,20.10
2018-07-22T13:38:53.555Z,20.10
2018-07-22T13:41:26.550Z,20.20
2018-07-22T13:43:59.615Z,20.30
2018-07-22T13:46:32.582Z,20.20
2018-07-22T13:49:05.629Z,20.30
2018-07-22T13:51:38.646Z,20.40
2018-07-22T13:54:11.706Z,20.30
2018-07-22T13:56:44.858Z,20.30
2018-07-22T13:59:17.944Z,20.40
2018-07-22T14:01:51.081Z,20.60
2018-07-22T14:04:24.025Z,20.60
2018-07-22T14:06:58.289Z,20.70
2018-07-22T14:09:31.319Z,20.80
2018-07-22T14:12:04.474Z,20.90
2018-07-22T14:14:37.668Z,20.90
2018-07-22T14:17:10.837Z,20.90
2018-07-22T14:19:43.776Z,20.90
2018-07-22T14:22:16.786Z,20.80
2018-07-22T14:24:49.705Z,20.80
2018-07-22T14:27:22.827Z,20.70
2018-07-22T14:29:55.757Z,20.80
2018-07-22T14:32:28.864Z,20.80
2018-07-22T14:35:02.057Z,20.80
2018-07-22T14:37:35.152Z,20.80
2018-07-22T14:40:08.306Z,20.90
2018-07-22T14:42:41.448Z,20.90
2018-07-22T14:45:14.566Z,20.90
2018-07-22T14:47:49.538Z,21.00
2018-07-22T14:50:23.344Z,21.10
2018-07-22T14:52:56.331Z,21.10
2018-07-22T14:55:29.715Z,21.40
2018-07-22T14:58:02.857Z,21.70
2018-07-22T15:00:35.827Z,21.90
2018-07-22T15:03:08.960Z,21.90
2018-07-22T15:05:42.097Z,21.80
2018-07-22T15:08:15.273Z,21.90
2018-07-22T15:10:48.444Z,22.00
2018-07-22T15:13:26.855Z,22.00
2018-07-22T15:16:00.070Z,22.20
2018-07-22T15:18:34.797Z,22.20
2018-07-22T15:21:12.497Z,22.30
2018-07-22T15:23:45.684Z,22.40
2018-07-22T15:26:20.228Z,22.50
2018-07-22T15:28:53.322Z,22.70
2018-07-22T15:31:26.248Z,22.70
2018-07-22T15:33:59.354Z,22.90
2018-07-22T15:36:32.570Z,23.20
2018-07-22T15:39:06.620Z,23.30
2018-07-22T15:41:39.798Z,23.40
2018-07-22T15:44:12.675Z,23.50
2018-07-22T15:46:45.760Z,23.50
2018-07-22T15:49:18.548Z,23.60
2018-07-22T15:51:51.623Z,23.60
2018-07-22T15:54:24.707Z,23.70
2018-07-22T15:56:57.818Z,23.90
2018-07-22T15:59:30.896Z,24.00
2018-07-22T16:17:40.423Z,24.00
2018-07-22T16:20:13.495Z,25.10
2018-07-22T16:22:46.416Z,24.80
2018-07-22T16:25:19.583Z,24.70
2018-07-22T16:27:52.570Z,24.70
2018-07-22T16:32:57.248Z,24.70
2018-07-22T16:35:30.265Z,24.50
2018-07-22T16:38:05.547Z,24.60
2018-07-22T16:40:38.764Z,24.70
2018-07-22T16:43:11.866Z,24.80
2018-07-22T16:45:45.360Z,24.80
2018-07-22T16:48:18.448Z,24.90
2018-07-22T16:50:51.381Z,25.00
2018-07-22T16:53:24.490Z,24.90
2018-07-22T16:55:57.644Z,25.10
2018-07-22T16:58:31.237Z,25.10
2018-07-22T17:01:04.319Z,25.20
2018-07-22T17:03:37.161Z,25.30
2018-07-22T17:06:10.460Z,25.10
2018-07-22T17:08:44.242Z,24.90
2018-07-22T17:11:17.270Z,25.10
2018-07-22T17:13:50.233Z,25.10
2018-07-22T17:16:23.404Z,24.90
2018-07-22T17:18:56.293Z,24.80
2018-07-22T17:21:29.393Z,25.00
2018-07-22T17:24:02.385Z,25.00
2018-07-22T17:26:35.503Z,25.00
2018-07-22T17:29:08.347Z,25.00
2018-07-22T17:31:41.545Z,25.10
2018-07-22T17:34:14.471Z,25.30
2018-07-22T17:36:47.499Z,25.30
2018-07-22T17:39:20.517Z,25.40
2018-07-22T17:41:53.517Z,25.30
2018-07-22T17:44:26.689Z,25.30
2018-07-22T17:46:59.889Z,25.40
2018-07-22T17:49:33.062Z,25.60
2018-07-22T17:52:06.043Z,25.60
2018-07-22T17:54:39.125Z,25.90
2018-07-22T17:57:12.138Z,25.90
2018-07-22T17:59:45.799Z,25.90
2018-07-22T18:02:18.992Z,26.10
2018-07-22T18:04:52.006Z,26.20
2018-07-22T18:07:24.977Z,26.20
2018-07-22T18:12:42.414Z,26.80
2018-07-22T18:15:15.355Z,27.10
2018-07-22T18:17:48.414Z,27.20
2018-07-22T18:20:21.488Z,27.30
2018-07-22T18:22:54.542Z,27.50
2018-07-22T18:25:27.805Z,27.40
2018-07-22T18:28:00.765Z,27.60
2018-07-22T18:30:34.043Z,27.70
2018-07-22T18:33:06.919Z,27.70
2018-07-22T18:35:40.065Z,27.50
2018-07-22T18:38:13.217Z,27.30
2018-07-22T18:40:46.333Z,27.20
2018-07-22T18:43:19.384Z,27.10
2018-07-22T18:45:52.322Z,27.10
2018-07-22T18:48:25.581Z,27.40
2018-07-22T18:50:58.795Z,27.70
2018-07-22T18:53:32.377Z,27.90
2018-07-22T18:56:05.907Z,28.50
2018-07-22T18:58:38.953Z,28.80
2018-07-22T19:01:11.952Z,28.70
2018-07-22T19:03:45.365Z,28.60
2018-07-22T19:06:19.713Z,28.50
2018-07-22T19:11:25.169Z,28.80
2018-07-22T19:14:01.075Z,28.60
2018-07-22T19:16:34.504Z,28.20
2018-07-22T19:19:08.134Z,28.30
2018-07-22T19:21:42.609Z,28.60
2018-07-22T19:24:15.645Z,28.80
2018-07-22T19:26:49.583Z,28.60
2018-07-22T19:29:35.253Z,28.40
2018-07-22T19:32:08.905Z,28.50
2018-07-22T19:34:47.332Z,28.50
2018-07-22T19:37:20.496Z,28.40
2018-07-22T19:39:53.717Z,28.50
2018-07-22T19:42:26.798Z,28.40
2018-07-22T19:45:05.521Z,28.60
2018-07-22T19:47:42.480Z,28.70
2018-07-22T19:50:21.653Z,28.80
2018-07-22T19:52:59.659Z,28.80
2018-07-22T19:55:37.051Z,28.80
2018-07-22T19:58:14.048Z,29.00
2018-07-22T20:00:52.135Z,28.90
2018-07-22T20:03:30.413Z,29.00
2018-07-22T20:06:05.854Z,29.40
2018-07-22T20:08:41.787Z,29.60
2018-07-22T20:11:18.627Z,29.30
2018-07-22T20:13:55.541Z,29.00
2018-07-22T20:16:29.837Z,29.30
2018-07-22T20:19:03.001Z,29.20
2018-07-22T20:21:41.519Z,29.20
2018-07-22T20:24:20.979Z,29.50
2018-07-22T20:27:00.512Z,29.60
2018-07-22T20:29:42.013Z,29.70
2018-07-22T20:32:22.539Z,29.70
2018-07-22T20:35:03.482Z,29.70
2018-07-22T20:37:43.436Z,30.00
2018-07-22T20:40:20.261Z,29.70
2018-07-22T20:43:01.466Z,29.40
2018-07-22T20:45:40.990Z,29.10
2018-07-22T20:48:21.492Z,28.90
2018-07-22T20:51:03.318Z,28.40
2018-07-22T20:53:44.055Z,28.00
2018-07-22T20:56:25.846Z,27.70
2018-07-22T20:59:04.846Z,27.60
2018-07-22T21:01:46.732Z,27.70
2018-07-22T21:04:37.033Z,27.80
2018-07-22T21:07:22.903Z,27.80
2018-07-22T21:10:03.087Z,27.90
2018-07-22T21:12:49.310Z,27.70
2018-07-22T21:15:27.823Z,27.70
2018-07-22T21:18:10.770Z,27.50
2018-07-22T21:20:53.125Z,27.40
2018-07-22T21:23:32.964Z,27.10
2018-07-22T21:26:15.066Z,27.00
2018-07-22T21:28:57.404Z,26.90
2018-07-22T21:31:37.719Z,27.10
2018-07-22T21:34:16.235Z,26.90
2018-07-22T21:36:58.502Z,26.80
2018-07-22T21:39:37.022Z,26.80
2018-07-22T21:42:19.432Z,26.70
2018-07-22T21:45:00.173Z,26.60
2018-07-22T21:47:41.789Z,26.60
2018-07-22T21:50:23.667Z,26.60
2018-07-22T21:53:03.645Z,26.50
2018-07-22T21:55:45.514Z,26.50
2018-07-22T21:58:29.418Z,26.40
2018-07-22T22:01:13.451Z,26.30
2018-07-22T22:03:53.272Z,26.30
2018-07-22T22:06:36.036Z,26.30
2018-07-22T22:09:18.049Z,26.30
2018-07-22T22:11:53.454Z,26.30
2018-07-22T22:14:26.629Z,26.30
2018-07-22T22:17:01.317Z,26.20
2018-07-22T22:19:36.223Z,26.20
2018-07-22T22:22:18.568Z,26.10
2018-07-22T22:27:23.478Z,26.20
2018-07-22T22:29:56.651Z,26.20
2018-07-22T22:32:29.668Z,26.10
2018-07-22T22:35:02.707Z,26.00
2018-07-22T22:37:35.709Z,26.10
2018-07-22T22:40:08.984Z,26.20
2018-07-22T22:42:42.010Z,26.10
2018-07-22T22:45:15.292Z,26.10
2018-07-22T22:47:48.337Z,26.10
2018-07-22T22:50:21.911Z,26.10
2018-07-22T22:52:55.050Z,26.00
2018-07-22T22:55:27.974Z,26.00
2018-07-22T22:58:11.662Z,26.00
2018-07-22T23:00:44.626Z,26.00
2018-07-22T23:03:18.584Z,26.00
2018-07-22T23:05:51.821Z,25.90
2018-07-22T23:08:24.919Z,25.80
2018-07-22T23:10:57.998Z,25.70
2018-07-22T23:13:31.201Z,25.60
2018-07-22T23:16:04.289Z,25.40
2018-07-22T23:18:37.503Z,25.40
2018-07-22T23:23:42.358Z,25.10
2018-07-22T23:26:15.513Z,25.10
2018-07-22T23:28:48.494Z,25.00
2018-07-22T23:31:21.740Z,25.00
2018-07-22T23:33:54.683Z,25.00
2018-07-22T23:36:27.882Z,25.20
2018-07-22T23:39:00.728Z,24.90
2018-07-22T23:41:34.011Z,24.80
2018-07-22T23:44:06.953Z,24.70
2018-07-22T23:46:46.292Z,24.50
2018-07-22T23:49:19.367Z,24.50
2018-07-22T23:51:52.893Z,24.60
2018-07-22T23:54:26.337Z,24.50
2018-07-22T23:56:59.428Z,24.40
2018-07-22T23:59:32.424Z,24.40
